createdAt,value
2023-07-08T00:01:20.954Z,-74
2023-07-08T00:03:50.008Z,-74
2023-07-08T00:06:23.558Z,-73
2023-07-08T00:08:51.821Z,-74
2023-07-08T00:11:20.714Z,-73
2023-07-08T00:13:49.295Z,-73
2023-07-08T00:16:21.245Z,-73
2023-07-08T00:18:50.434Z,-73
2023-07-08T00:21:20.643Z,-75
2023-07-08T00:23:50.886Z,-74
2023-07-08T00:26:24.905Z,-74
2023-07-08T00:28:54.116Z,-72
2023-07-08T00:31:24.860Z,-74
2023-07-08T00:33:56.541Z,-73
2023-07-08T00:36:29.568Z,-73
2023-07-08T00:38:58.562Z,-74
2023-07-08T00:41:32.882Z,-74
2023-07-08T00:44:02.170Z,-73
2023-07-08T00:46:58.392Z,-74
2023-07-08T00:49:39.073Z,-75
2023-07-08T00:52:25.948Z,-73
2023-07-08T00:54:56.752Z,-73
2023-07-08T00:57:30.709Z,-74
2023-07-08T01:00:04.946Z,-72
2023-07-08T01:02:38.383Z,-74
2023-07-08T01:05:12.222Z,-74
2023-07-08T01:07:46.352Z,-73
2023-07-08T01:10:20.649Z,-72
2023-07-08T01:12:53.722Z,-73
2023-07-08T01:15:25.960Z,-73
2023-07-08T01:17:55.176Z,-74
2023-07-08T01:20:23.400Z,-72
2023-07-08T01:22:53.058Z,-74
2023-07-08T01:25:22.703Z,-73
2023-07-08T01:27:56.346Z,-75
2023-07-08T01:30:24.633Z,-75
2023-07-08T01:33:01.223Z,-74
2023-07-08T01:35:29.593Z,-74
2023-07-08T01:38:03.593Z,-75
2023-07-08T01:40:35.135Z,-74
2023-07-08T01:43:07.732Z,-73
2023-07-08T01:45:43.159Z,-73
2023-07-08T01:48:16.883Z,-74
2023-07-08T01:50:51.437Z,-74
2023-07-08T01:53:29.571Z,-73
2023-07-08T01:55:57.824Z,-75
2023-07-08T01:58:26.461Z,-73
2023-07-08T02:00:55.199Z,-72
2023-07-08T02:03:23.795Z,-74
2023-07-08T02:05:52.028Z,-74
2023-07-08T02:08:22.242Z,-73
2023-07-08T02:10:53.244Z,-74
2023-07-08T02:13:22.263Z,-74
2023-07-08T02:15:50.563Z,-74
2023-07-08T02:18:20.103Z,-73
2023-07-08T02:20:48.540Z,-73
2023-07-08T02:23:17.297Z,-74
2023-07-08T02:25:54.638Z,-75
2023-07-08T02:28:23.461Z,-74
2023-07-08T02:30:51.688Z,-74
2023-07-08T02:33:19.786Z,-74
2023-07-08T02:35:47.996Z,-74
2023-07-08T02:38:16.168Z,-74
2023-07-08T02:40:44.788Z,-73
2023-07-08T02:43:14.268Z,-74
2023-07-08T02:45:42.397Z,-74
2023-07-08T02:48:10.535Z,-74
2023-07-08T02:50:38.681Z,-75
2023-07-08T02:53:06.802Z,-75
2023-07-08T02:55:34.970Z,-74
2023-07-08T02:58:03.254Z,-73
2023-07-08T03:00:32.724Z,-73
2023-07-08T03:03:01.153Z,-75
2023-07-08T03:05:29.419Z,-74
2023-07-08T03:07:57.571Z,-74
2023-07-08T03:10:25.766Z,-74
2023-07-08T03:12:53.853Z,-74
2023-07-08T03:15:22.049Z,-74
2023-07-08T03:17:51.602Z,-75
2023-07-08T03:20:19.798Z,-74
2023-07-08T03:22:47.927Z,-74
2023-07-08T03:25:16.274Z,-73
2023-07-08T03:27:44.405Z,-73
2023-07-08T03:30:13.746Z,-72
2023-07-08T03:32:41.989Z,-75
2023-07-08T03:35:11.807Z,-74
2023-07-08T03:37:39.927Z,-76
2023-07-08T03:40:12.342Z,-75
2023-07-08T03:42:40.475Z,-75
2023-07-08T03:45:10.067Z,-74
2023-07-08T03:47:38.507Z,-73
2023-07-08T03:50:08.475Z,-74
2023-07-08T03:52:37.913Z,-74
2023-07-08T03:55:07.202Z,-74
2023-07-08T03:57:35.383Z,-74
2023-07-08T04:00:04.741Z,-72
2023-07-08T04:02:32.910Z,-73
2023-07-08T04:05:01.205Z,-75
2023-07-08T04:07:29.409Z,-73
2023-07-08T04:09:58.932Z,-73
2023-07-08T04:12:27.113Z,-74
2023-07-08T04:14:55.286Z,-72
2023-07-08T04:17:24.317Z,-74
2023-07-08T04:19:52.668Z,-75
2023-07-08T04:22:20.968Z,-74
2023-07-08T04:24:49.124Z,-73
2023-07-08T04:27:19.769Z,-74
2023-07-08T04:29:47.971Z,-74
2023-07-08T04:32:16.153Z,-74
2023-07-08T04:34:44.263Z,-74
2023-07-08T04:37:17.671Z,-74
2023-07-08T04:39:45.779Z,-73
2023-07-08T04:42:18.267Z,-73
2023-07-08T04:44:47.720Z,-75
2023-07-08T04:47:15.947Z,-74
2023-07-08T04:49:44.920Z,-74
2023-07-08T04:52:13.274Z,-74
2023-07-08T04:54:41.398Z,-74
2023-07-08T04:57:10.086Z,-74
2023-07-08T04:59:38.199Z,-74
2023-07-08T05:02:07.783Z,-75
2023-07-08T05:04:36.003Z,-74
2023-07-08T05:07:04.350Z,-74
2023-07-08T05:09:32.797Z,-74
2023-07-08T05:12:00.976Z,-75
2023-07-08T05:14:29.112Z,-76
2023-07-08T05:16:59.504Z,-74
2023-07-08T05:19:29.586Z,-75
2023-07-08T05:21:57.747Z,-73
2023-07-08T05:24:25.930Z,-74
2023-07-08T05:26:54.349Z,-74
2023-07-08T05:29:22.495Z,-73
2023-07-08T05:31:50.636Z,-74
2023-07-08T05:34:18.843Z,-76
2023-07-08T05:36:48.374Z,-74
2023-07-08T05:39:16.548Z,-75
2023-07-08T05:41:44.700Z,-73
2023-07-08T05:44:12.838Z,-74
2023-07-08T05:46:41.058Z,-73
2023-07-08T05:49:09.275Z,-74
2023-07-08T05:51:38.760Z,-75
2023-07-08T05:54:08.544Z,-74
2023-07-08T05:56:36.767Z,-74
2023-07-08T05:59:05.341Z,-73
2023-07-08T06:01:34.276Z,-73
2023-07-08T06:04:02.575Z,-75
2023-07-08T06:06:31.432Z,-74
2023-07-08T06:09:01.179Z,-75
2023-07-08T06:11:33.043Z,-74
2023-07-08T06:14:01.534Z,-74
2023-07-08T06:16:40.486Z,-75
2023-07-08T06:19:10.798Z,-76
2023-07-08T06:21:39.909Z,-74
2023-07-08T06:24:08.552Z,-75
2023-07-08T06:26:38.202Z,-75
2023-07-08T06:29:06.732Z,-75
2023-07-08T06:31:35.209Z,-74
2023-07-08T06:34:03.832Z,-74
2023-07-08T06:36:32.400Z,-75
2023-07-08T06:39:00.647Z,-75
2023-07-08T06:41:28.829Z,-73
2023-07-08T06:43:59.007Z,-75
2023-07-08T06:46:27.344Z,-74
2023-07-08T06:48:55.681Z,-75
2023-07-08T06:51:24.223Z,-75
2023-07-08T06:53:52.351Z,-75
2023-07-08T06:56:21.534Z,-74
2023-07-08T06:58:49.733Z,-77
2023-07-08T07:01:19.346Z,-73
2023-07-08T07:03:47.657Z,-74
2023-07-08T07:06:15.940Z,-74
2023-07-08T07:08:44.372Z,-73
2023-07-08T07:11:12.516Z,-73
2023-07-08T07:13:40.715Z,-74
2023-07-08T07:16:09.162Z,-73
2023-07-08T07:18:38.723Z,-73
2023-07-08T07:21:07.910Z,-74
2023-07-08T07:23:36.190Z,-75
2023-07-08T07:26:05.602Z,-72
2023-07-08T07:28:33.874Z,-73
2023-07-08T07:31:02.678Z,-74
2023-07-08T07:33:32.302Z,-75
2023-07-08T07:36:02.392Z,-75
2023-07-08T07:38:32.150Z,-75
2023-07-08T07:41:01.372Z,-77
2023-07-08T07:43:29.713Z,-75
2023-07-08T07:45:58.458Z,-78
2023-07-08T07:48:27.070Z,-74
2023-07-08T07:50:55.220Z,-75
2023-07-08T07:53:25.143Z,-74
2023-07-08T07:55:59.539Z,-76
2023-07-08T07:58:28.705Z,-76
2023-07-08T08:00:56.830Z,-74
2023-07-08T08:03:25.458Z,-76
2023-07-08T08:05:53.628Z,-74
2023-07-08T08:08:23.466Z,-72
2023-07-08T08:10:53.031Z,-74
2023-07-08T08:13:21.219Z,-75
2023-07-08T08:15:49.529Z,-75
2023-07-08T08:18:17.776Z,-75
2023-07-08T08:20:45.919Z,-75
2023-07-08T08:23:14.059Z,-74
2023-07-08T08:25:42.235Z,-76
2023-07-08T08:28:11.757Z,-75
2023-07-08T08:30:39.962Z,-76
2023-07-08T08:33:08.214Z,-74
2023-07-08T08:35:36.531Z,-75
2023-07-08T08:38:06.142Z,-74
2023-07-08T08:40:34.962Z,-75
2023-07-08T08:43:07.828Z,-75
2023-07-08T08:45:49.276Z,-75
2023-07-08T08:48:21.854Z,-76
2023-07-08T08:50:59.273Z,-75
2023-07-08T08:53:29.127Z,-75
2023-07-08T08:56:05.562Z,-75
2023-07-08T08:58:45.580Z,-74
2023-07-08T09:01:18.649Z,-76
2023-07-08T09:03:54.621Z,-75
2023-07-08T09:06:28.985Z,-69
2023-07-08T09:09:04.323Z,-70
2023-07-08T09:11:47.959Z,-71
2023-07-08T09:14:23.961Z,-72
2023-07-08T09:17:11.851Z,-72
2023-07-08T09:19:46.029Z,-74
2023-07-08T09:22:23.644Z,-76
2023-07-08T09:24:58.607Z,-76
2023-07-08T09:27:26.830Z,-69
2023-07-08T09:29:55.221Z,-70
2023-07-08T09:32:29.810Z,-69
2023-07-08T09:35:06.877Z,-69
2023-07-08T09:37:37.968Z,-69
2023-07-08T09:40:18.691Z,-70
2023-07-08T09:42:53.238Z,-69
2023-07-08T09:45:25.282Z,-69
2023-07-08T09:47:58.466Z,-70
2023-07-08T09:50:30.576Z,-68
2023-07-08T09:53:02.443Z,-70
2023-07-08T09:55:30.736Z,-70
2023-07-08T09:58:05.283Z,-68
2023-07-08T10:00:41.044Z,-68
2023-07-08T10:03:21.677Z,-69
2023-07-08T10:05:52.203Z,-68
2023-07-08T10:08:24.196Z,-67
2023-07-08T10:11:03.243Z,-67
2023-07-08T10:13:41.256Z,-69
2023-07-08T10:16:17.564Z,-68
2023-07-08T10:18:47.128Z,-68
2023-07-08T10:21:33.260Z,-70
2023-07-08T10:24:24.186Z,-69
2023-07-08T10:27:06.241Z,-68
2023-07-08T10:29:43.338Z,-67
2023-07-08T10:32:26.589Z,-68
2023-07-08T10:35:10.956Z,-67
2023-07-08T10:37:57.840Z,-69
2023-07-08T10:40:43.261Z,-67
2023-07-08T10:43:47.193Z,-70
2023-07-08T10:46:31.997Z,-67
2023-07-08T10:49:28.757Z,-67
2023-07-08T10:52:18.553Z,-66
2023-07-08T10:55:09.037Z,-66
2023-07-08T10:58:21.731Z,-66
2023-07-08T11:01:03.633Z,-68
2023-07-08T11:04:09.480Z,-61
2023-07-08T11:06:50.650Z,-67
2023-07-08T11:09:30.059Z,-68
2023-07-08T11:12:10.083Z,-66
2023-07-08T11:14:48.809Z,-64
2023-07-08T11:17:25.037Z,-64
2023-07-08T11:20:04.170Z,-66
2023-07-08T11:22:36.178Z,-65
2023-07-08T11:25:18.237Z,-66
2023-07-08T11:27:52.998Z,-66
2023-07-08T11:30:26.825Z,-66
2023-07-08T11:33:04.234Z,-65
2023-07-08T11:35:43.875Z,-64
2023-07-08T11:38:17.585Z,-65
2023-07-08T11:40:58.192Z,-65
2023-07-08T11:43:35.864Z,-66
2023-07-08T11:46:08.582Z,-76
2023-07-08T11:48:48.084Z,-66
2023-07-08T11:51:21.625Z,-69
2023-07-08T11:53:52.053Z,-68
2023-07-08T11:56:27.847Z,-65
2023-07-08T11:59:18.425Z,-65
2023-07-08T12:01:56.226Z,-66
2023-07-08T12:04:32.921Z,-66
2023-07-08T12:07:24.445Z,-66
2023-07-08T12:10:05.232Z,-66
2023-07-08T12:12:42.341Z,-67
2023-07-08T12:15:25.132Z,-64
2023-07-08T12:17:56.941Z,-65
2023-07-08T12:20:30.395Z,-66
2023-07-08T12:22:58.964Z,-67
2023-07-08T12:25:33.054Z,-64
2023-07-08T12:28:03.565Z,-62
2023-07-08T12:30:34.623Z,-62
2023-07-08T12:33:05.204Z,-68
2023-07-08T12:35:36.497Z,-65
2023-07-08T12:38:19.766Z,-67
2023-07-08T12:40:48.183Z,-68
2023-07-08T12:43:19.609Z,-65
2023-07-08T12:45:48.274Z,-65
2023-07-08T12:48:16.537Z,-65
2023-07-08T12:50:44.886Z,-66
2023-07-08T12:53:14.133Z,-67
2023-07-08T12:55:46.973Z,-69
2023-07-08T12:58:24.475Z,-67
2023-07-08T13:00:52.978Z,-60
2023-07-08T13:03:25.198Z,-63
2023-07-08T13:05:57.917Z,-61
2023-07-08T13:08:34.072Z,-61
2023-07-08T13:11:05.391Z,-68
2023-07-08T13:13:42.482Z,-63
2023-07-08T13:16:12.566Z,-63
2023-07-08T13:18:44.068Z,-68
2023-07-08T13:21:17.076Z,-66
2023-07-08T13:23:46.401Z,-70
2023-07-08T13:26:17.727Z,-67
2023-07-08T13:28:47.997Z,-68
2023-07-08T13:31:23.028Z,-67
2023-07-08T13:33:56.088Z,-71
2023-07-08T13:36:27.138Z,-72
2023-07-08T13:38:55.568Z,-73
2023-07-08T13:41:25.943Z,-66
2023-07-08T13:43:55.579Z,-65
2023-07-08T13:46:37.916Z,-66
2023-07-08T13:49:15.155Z,-66
2023-07-08T13:51:46.778Z,-67
2023-07-08T13:54:24.654Z,-65
2023-07-08T13:56:54.212Z,-71
2023-07-08T13:59:26.811Z,-69
2023-07-08T14:01:59.327Z,-69
2023-07-08T14:04:33.147Z,-69
2023-07-08T14:07:01.418Z,-69
2023-07-08T14:09:29.803Z,-67
2023-07-08T14:11:57.998Z,-64
2023-07-08T14:14:27.483Z,-64
2023-07-08T14:16:56.948Z,-70
2023-07-08T14:19:30.078Z,-64
2023-07-08T14:22:00.632Z,-64
2023-07-08T14:24:28.957Z,-66
2023-07-08T14:26:57.282Z,-64
2023-07-08T14:29:26.995Z,-65
2023-07-08T14:31:55.437Z,-66
2023-07-08T14:34:28.020Z,-68
2023-07-08T14:36:56.408Z,-65
2023-07-08T14:39:24.610Z,-65
2023-07-08T14:41:52.986Z,-66
2023-07-08T14:44:25.966Z,-64
2023-07-08T14:46:56.109Z,-65
2023-07-08T14:49:26.572Z,-64
2023-07-08T14:51:54.828Z,-65
2023-07-08T14:54:24.225Z,-66
2023-07-08T14:56:52.781Z,-66
2023-07-08T14:59:25.330Z,-66
2023-07-08T15:01:57.333Z,-65
2023-07-08T15:04:25.803Z,-65
2023-07-08T15:06:57.960Z,-66
2023-07-08T15:09:26.147Z,-66
2023-07-08T15:11:54.645Z,-65
2023-07-08T15:14:27.257Z,-65
2023-07-08T15:16:57.080Z,-66
2023-07-08T15:19:26.986Z,-67
2023-07-08T15:21:55.179Z,-66
2023-07-08T15:24:25.564Z,-65
2023-07-08T15:26:53.824Z,-65
2023-07-08T15:29:25.483Z,-67
2023-07-08T15:31:53.707Z,-68
2023-07-08T15:34:24.611Z,-66
2023-07-08T15:36:52.895Z,-68
2023-07-08T15:39:22.231Z,-66
2023-07-08T15:41:50.663Z,-67
2023-07-08T15:44:18.842Z,-67
2023-07-08T15:46:49.883Z,-67
2023-07-08T15:49:21.010Z,-68
2023-07-08T15:51:50.937Z,-69
2023-07-08T15:54:20.839Z,-67
2023-07-08T15:56:52.069Z,-67
2023-07-08T15:59:26.211Z,-67
2023-07-08T16:01:54.721Z,-67
2023-07-08T16:04:30.814Z,-67
2023-07-08T16:07:00.383Z,-67
2023-07-08T16:09:28.940Z,-68
2023-07-08T16:11:57.072Z,-67
2023-07-08T16:14:27.378Z,-66
2023-07-08T16:16:56.284Z,-68
2023-07-08T16:19:24.467Z,-67
2023-07-08T16:21:52.636Z,-67
2023-07-08T16:24:22.318Z,-68
2023-07-08T16:26:51.062Z,-68
2023-07-08T16:29:19.493Z,-67
2023-07-08T16:31:48.984Z,-66
2023-07-08T16:34:17.274Z,-67
2023-07-08T16:36:45.431Z,-67
2023-07-08T16:39:13.557Z,-67
2023-07-08T16:41:43.103Z,-68
2023-07-08T16:44:16.718Z,-68
2023-07-08T16:46:45.435Z,-68
2023-07-08T16:49:14.545Z,-67
2023-07-08T16:51:42.970Z,-69
2023-07-08T16:54:19.912Z,-67
2023-07-08T16:56:49.375Z,-70
2023-07-08T16:59:18.690Z,-67
2023-07-08T17:01:48.259Z,-66
2023-07-08T17:04:17.001Z,-67
2023-07-08T17:06:45.344Z,-67
2023-07-08T17:09:15.219Z,-67
2023-07-08T17:11:43.558Z,-67
2023-07-08T17:14:13.619Z,-69
2023-07-08T17:16:42.057Z,-67
2023-07-08T17:19:12.269Z,-68
2023-07-08T17:21:41.144Z,-67
2023-07-08T17:24:12.913Z,-67
2023-07-08T17:26:41.592Z,-67
2023-07-08T17:29:10.073Z,-69
2023-07-08T17:31:47.816Z,-68
2023-07-08T17:34:23.639Z,-67
2023-07-08T17:36:53.307Z,-68
2023-07-08T17:39:22.878Z,-67
2023-07-08T17:41:53.716Z,-66
2023-07-08T17:44:22.224Z,-67
2023-07-08T17:46:52.230Z,-67
2023-07-08T17:49:20.468Z,-68
2023-07-08T17:51:51.701Z,-68
2023-07-08T17:54:21.268Z,-66
2023-07-08T17:56:50.898Z,-67
2023-07-08T17:59:23.233Z,-67
2023-07-08T18:01:53.105Z,-68
2023-07-08T18:04:21.415Z,-66
2023-07-08T18:06:49.652Z,-67
2023-07-08T18:09:17.960Z,-67
2023-07-08T18:11:49.761Z,-67
2023-07-08T18:14:18.322Z,-69
2023-07-08T18:16:46.562Z,-67
2023-07-08T18:19:16.343Z,-67
2023-07-08T18:21:46.672Z,-67
2023-07-08T18:24:14.843Z,-67
2023-07-08T18:26:43.170Z,-69
2023-07-08T18:29:14.046Z,-68
2023-07-08T18:31:43.473Z,-68
2023-07-08T18:34:11.911Z,-67
2023-07-08T18:36:42.115Z,-67
2023-07-08T18:39:10.269Z,-68
2023-07-08T18:41:45.910Z,-66
2023-07-08T18:44:25.690Z,-68
2023-07-08T18:46:55.054Z,-68
2023-07-08T18:49:25.181Z,-68
2023-07-08T18:51:55.249Z,-68
2023-07-08T18:54:24.504Z,-68
2023-07-08T18:56:52.670Z,-67
2023-07-08T18:59:21.000Z,-67
2023-07-08T19:01:50.265Z,-67
2023-07-08T19:04:25.358Z,-67
2023-07-08T19:06:58.338Z,-68
2023-07-08T19:09:26.731Z,-67
2023-07-08T19:11:54.939Z,-68
2023-07-08T19:14:23.213Z,-67
2023-07-08T19:16:51.371Z,-67
2023-07-08T19:19:21.214Z,-67
2023-07-08T19:21:49.478Z,-66
2023-07-08T19:24:36.091Z,-67
2023-07-08T19:27:14.024Z,-67
2023-07-08T19:29:42.127Z,-68
2023-07-08T19:32:14.145Z,-66
2023-07-08T19:34:43.985Z,-67
2023-07-08T19:37:17.906Z,-69
2023-07-08T19:39:47.419Z,-67
2023-07-08T19:42:25.942Z,-67
2023-07-08T19:44:54.130Z,-68
2023-07-08T19:47:22.287Z,-68
2023-07-08T19:49:50.418Z,-67
2023-07-08T19:52:18.686Z,-68
2023-07-08T19:54:49.066Z,-67
2023-07-08T19:57:17.181Z,-68
2023-07-08T19:59:45.371Z,-69
2023-07-08T20:02:15.638Z,-67
2023-07-08T20:04:49.194Z,-67
2023-07-08T20:07:17.711Z,-67
2023-07-08T20:09:47.216Z,-67
2023-07-08T20:12:16.410Z,-68
2023-07-08T20:14:44.707Z,-66
2023-07-08T20:17:16.336Z,-67
2023-07-08T20:19:44.900Z,-66
2023-07-08T20:22:16.935Z,-67
2023-07-08T20:24:45.160Z,-67
2023-07-08T20:27:15.189Z,-68
2023-07-08T20:29:43.463Z,-67
2023-07-08T20:32:16.384Z,-66
2023-07-08T20:34:44.662Z,-66
2023-07-08T20:37:15.375Z,-67
2023-07-08T20:39:43.781Z,-67
2023-07-08T20:42:15.764Z,-67
2023-07-08T20:44:43.917Z,-67
2023-07-08T20:47:17.282Z,-67
2023-07-08T20:49:45.510Z,-66
2023-07-08T20:52:14.445Z,-67
2023-07-08T20:54:42.609Z,-67
2023-07-08T20:57:17.325Z,-68
2023-07-08T20:59:45.488Z,-68
2023-07-08T21:02:24.801Z,-68
2023-07-08T21:04:53.880Z,-67
2023-07-08T21:07:23.085Z,-68
2023-07-08T21:09:51.542Z,-68
2023-07-08T21:12:21.119Z,-66
2023-07-08T21:14:49.263Z,-67
2023-07-08T21:17:20.581Z,-67
2023-07-08T21:19:48.777Z,-67
2023-07-08T21:22:17.109Z,-68
2023-07-08T21:24:45.295Z,-67
2023-07-08T21:27:27.054Z,-66
2023-07-08T21:29:55.163Z,-67
2023-07-08T21:32:23.311Z,-68
2023-07-08T21:34:51.465Z,-67
2023-07-08T21:37:19.595Z,-67
2023-07-08T21:39:48.094Z,-68
2023-07-08T21:42:16.600Z,-66
2023-07-08T21:44:46.093Z,-69
2023-07-08T21:47:14.218Z,-67
2023-07-08T21:49:42.365Z,-67
2023-07-08T21:52:11.411Z,-67
2023-07-08T21:54:39.608Z,-67
2023-07-08T21:57:14.113Z,-67
2023-07-08T21:59:42.328Z,-71
2023-07-08T22:02:15.185Z,-67
2023-07-08T22:04:43.488Z,-67
2023-07-08T22:07:16.916Z,-65
2023-07-08T22:09:45.168Z,-67
2023-07-08T22:12:14.962Z,-66
2023-07-08T22:14:43.128Z,-67
2023-07-08T22:17:17.645Z,-67
2023-07-08T22:19:45.883Z,-68
2023-07-08T22:22:14.042Z,-66
2023-07-08T22:24:42.187Z,-67
2023-07-08T22:27:10.985Z,-67
2023-07-08T22:29:39.148Z,-67
2023-07-08T22:32:10.652Z,-65
2023-07-08T22:34:40.215Z,-66
2023-07-08T22:37:13.023Z,-66
2023-07-08T22:39:41.210Z,-72
2023-07-08T22:42:13.000Z,-67
2023-07-08T22:44:41.201Z,-66
2023-07-08T22:47:14.978Z,-67
2023-07-08T22:49:45.053Z,-66
2023-07-08T22:52:27.031Z,-67
2023-07-08T22:54:55.787Z,-67
2023-07-08T22:57:24.017Z,-67
2023-07-08T22:59:52.141Z,-67
2023-07-08T23:02:20.692Z,-66
2023-07-08T23:04:50.309Z,-66
2023-07-08T23:07:20.590Z,-67
2023-07-08T23:09:48.837Z,-67
2023-07-08T23:12:16.982Z,-66
2023-07-08T23:14:48.097Z,-66
2023-07-08T23:17:16.286Z,-66
2023-07-08T23:19:44.468Z,-67
2023-07-08T23:22:21.424Z,-69
2023-07-08T23:24:50.331Z,-66
2023-07-08T23:27:24.069Z,-67
2023-07-08T23:29:52.265Z,-67
2023-07-08T23:32:22.315Z,-66
2023-07-08T23:34:50.472Z,-67
2023-07-08T23:37:25.181Z,-66
2023-07-08T23:39:53.781Z,-66
2023-07-08T23:42:23.882Z,-66
2023-07-08T23:44:52.080Z,-67
2023-07-08T23:47:24.642Z,-66
2023-07-08T23:49:53.581Z,-67
2023-07-08T23:52:23.072Z,-67
2023-07-08T23:54:51.334Z,-66
2023-07-08T23:57:22.717Z,-66
2023-07-08T23:59:55.222Z,-67
